Al, Norway

12:56 PM CEST on April 26, 2015 (GMT +0200)
Aal i Hallingdal | | Change Station
CLOSE
Current Station
Personal Weather Station
Location: Aal, BUSKERUD
Elevation: 1475 ft
Nearby Weather Stations

Elev 1475 ft 60.62 °N, 8.52 °E | Updated 11 minutes ago

Scattered Clouds
Scattered Clouds
40.8 °F
Feels Like 35 °F
N
9.0
Wind Variable Wind from SW
Gusts 16.0 mph

Today
High -- | Low -- °F
--% Chance of Precip.
Yesterday
High -- | Low -- °F
Precip. -- in
5:35 AM 9:13 PM
First Quarter, 54% visible
Pressure 29.44 in
Visibility 6.2 miles
Clouds Few 2700 ft
Scattered Clouds 4500 ft
Windchill 35 °F
Dew Point 25 °F
Humidity 54%
Rainfall 0.00 in
Snow Depth Not available.
UV 4 out of 12
Pollen Not available.
Air Quality Not available.
Flu Activity Not available.
METAR ENSG 261050Z 24010KT 9999 VCSH FEW027 SCT045 03/M03 Q0997 RMK

More Conditions Fewer Conditions

Pressure 29.44 in
Visibility 6.2 miles
Clouds Few 2700 ft
Scattered Clouds 4500 ft
Windchill 35 °F
Dew Point 25 °F
Humidity 54%
Rainfall 0.00 in
Snow Depth Not available.
UV 4 out of 12
Pollen Not available.
Air Quality Not available.
Flu Activity Not available.
METAR ENSG 261050Z 24010KT 9999 VCSH FEW027 SCT045 03/M03 Q0997 RMK

More Conditions Fewer Conditions

10-Day Weather Forecast

Almanac

Astronomy

Apr. 26, 2015 Rise Set
Actual Time
Civil Twilight
Nautical Twilight
Astronomical Twilight
Moon
Length of Visible Light
Length of Day
Tomorrow will be .
, % of the Moon is Illuminated

Today's Extremes

Country Highs Country Lows

Community

WunderPhotos

Upload Photos

1,816,962 photos uploaded!

WunderBlogs® & News

Nearby

Air Quality

  Air Quality AQ Index Pollutant
Not available.

Snow Depth

Station Depth Elevation

Earthquake Activity

City Distance Mag. Time & Date
Minimum magnitude displayed is 2.5.

Coastal Water Temperatures

Place Temperature

Stations

Nearby Weather Stations

Station Location Temp. Windchill Dew Point Humidity Wind Precip. Elev Updated Type